createdAt,value
2019-05-19T00:00:16.619Z,15.52
2019-05-19T00:01:16.504Z,15.48
2019-05-19T00:02:16.500Z,15.46
2019-05-19T00:03:16.383Z,15.48
2019-05-19T00:04:16.380Z,15.51
2019-05-19T00:05:16.265Z,15.45
2019-05-19T00:06:16.263Z,15.48
2019-05-19T00:07:16.263Z,15.48
2019-05-19T00:08:16.143Z,15.48
2019-05-19T00:09:16.784Z,15.49
2019-05-19T00:10:16.026Z,15.41
2019-05-19T00:11:16.024Z,15.45
2019-05-19T00:12:15.908Z,15.43
2019-05-19T00:13:15.906Z,15.41
2019-05-19T00:14:15.789Z,15.45
2019-05-19T00:15:15.786Z,15.39
2019-05-19T00:16:15.670Z,15.38
2019-05-19T00:17:15.669Z,15.35
2019-05-19T00:18:15.668Z,15.33
2019-05-19T00:19:26.362Z,15.39
2019-05-19T00:20:15.609Z,15.38
2019-05-19T00:21:15.485Z,15.35
2019-05-19T00:22:15.431Z,15.35
2019-05-19T00:23:15.321Z,15.35
2019-05-19T00:24:15.311Z,15.35
2019-05-19T00:25:15.194Z,15.38
2019-05-19T00:26:15.192Z,15.30
2019-05-19T00:27:15.076Z,15.30
2019-05-19T00:28:15.074Z,15.33
2019-05-19T00:29:15.075Z,15.35
2019-05-19T00:30:14.957Z,15.31
2019-05-19T00:31:14.954Z,15.35
2019-05-19T00:32:14.838Z,15.35
2019-05-19T00:33:14.835Z,15.26
2019-05-19T00:34:14.719Z,15.28
2019-05-19T00:35:14.721Z,15.24
2019-05-19T00:36:14.605Z,15.30
2019-05-19T00:37:14.598Z,15.26
2019-05-19T00:38:14.481Z,15.26
2019-05-19T00:39:14.491Z,15.36
2019-05-19T00:40:14.499Z,15.31
2019-05-19T00:41:14.361Z,15.35
2019-05-19T00:42:14.368Z,15.28
2019-05-19T00:43:14.243Z,15.24
2019-05-19T00:44:14.240Z,15.27
2019-05-19T00:45:14.124Z,15.30
2019-05-19T00:46:14.123Z,15.28
2019-05-19T00:47:14.005Z,15.26
2019-05-19T00:48:14.001Z,15.30
2019-05-19T00:49:13.885Z,15.27
2019-05-19T00:50:13.883Z,15.21
2019-05-19T00:51:13.883Z,15.20
2019-05-19T00:52:13.766Z,15.21
2019-05-19T00:53:13.768Z,15.19
2019-05-19T00:54:13.649Z,15.20
2019-05-19T00:55:13.645Z,15.20
2019-05-19T00:56:13.530Z,15.19
2019-05-19T00:57:13.527Z,15.21
2019-05-19T00:58:13.411Z,15.23
2019-05-19T00:59:13.408Z,15.12
2019-05-19T01:00:13.292Z,15.23
2019-05-19T01:01:13.288Z,15.15
2019-05-19T01:02:13.292Z,15.11
2019-05-19T01:03:13.170Z,15.19
2019-05-19T01:04:13.170Z,15.09
2019-05-19T01:05:13.055Z,15.09
2019-05-19T01:06:13.050Z,15.11
2019-05-19T01:07:12.934Z,15.09
2019-05-19T01:08:12.933Z,15.08
2019-05-19T01:09:12.816Z,15.09
2019-05-19T01:10:12.823Z,15.09
2019-05-19T01:11:12.699Z,15.08
2019-05-19T01:12:12.693Z,15.08
2019-05-19T01:13:12.695Z,15.12
2019-05-19T01:14:15.298Z,15.05
2019-05-19T01:15:12.576Z,15.01
2019-05-19T01:16:12.457Z,15.11
2019-05-19T01:17:12.457Z,15.02
2019-05-19T01:18:12.340Z,15.02
2019-05-19T01:19:12.339Z,15.01
2019-05-19T01:20:12.221Z,14.98
2019-05-19T01:21:12.217Z,15.01
2019-05-19T01:22:12.101Z,15.02
2019-05-19T01:23:12.101Z,15.01
2019-05-19T01:24:11.982Z,14.99
2019-05-19T01:25:11.981Z,15.02
2019-05-19T01:26:11.980Z,14.94
2019-05-19T01:27:11.862Z,14.99
2019-05-19T01:28:11.861Z,15.05
2019-05-19T01:29:11.745Z,14.98
2019-05-19T01:30:11.743Z,14.95
2019-05-19T01:31:11.635Z,15.03
2019-05-19T01:32:11.625Z,15.01
2019-05-19T01:33:11.506Z,14.93
2019-05-19T01:34:11.505Z,14.99
2019-05-19T01:35:11.395Z,15.02
2019-05-19T01:36:11.387Z,14.98
2019-05-19T01:37:11.386Z,14.93
2019-05-19T01:38:11.267Z,14.98
2019-05-19T01:39:11.267Z,14.94
2019-05-19T01:40:11.150Z,14.91
2019-05-19T01:41:11.148Z,14.98
2019-05-19T01:42:11.033Z,14.94
2019-05-19T01:43:11.029Z,15.01
2019-05-19T01:44:10.912Z,14.99
2019-05-19T01:45:10.912Z,14.94
2019-05-19T01:46:10.793Z,14.91
2019-05-19T01:47:10.791Z,14.93
2019-05-19T01:48:10.679Z,14.91
2019-05-19T01:49:10.672Z,14.91
2019-05-19T01:50:18.677Z,14.99
2019-05-19T01:51:10.555Z,14.88
2019-05-19T01:52:10.554Z,14.93
2019-05-19T01:53:10.436Z,14.99
2019-05-19T01:54:10.439Z,14.93
2019-05-19T01:55:10.318Z,14.93
2019-05-19T01:56:10.326Z,14.94
2019-05-19T01:57:10.199Z,14.87
2019-05-19T01:58:10.197Z,14.91
2019-05-19T01:59:10.094Z,14.87
2019-05-19T02:00:10.105Z,14.94
2019-05-19T02:01:10.077Z,14.94
2019-05-19T02:02:09.959Z,14.93
2019-05-19T02:03:09.969Z,14.93
2019-05-19T02:04:09.841Z,14.91
2019-05-19T02:05:09.840Z,14.86
2019-05-19T02:06:09.725Z,14.87
2019-05-19T02:07:09.721Z,14.88
2019-05-19T02:08:09.669Z,14.86
2019-05-19T02:09:09.601Z,14.94
2019-05-19T02:10:09.492Z,14.84
2019-05-19T02:11:09.483Z,14.87
2019-05-19T02:12:09.366Z,14.86
2019-05-19T02:13:09.364Z,14.86
2019-05-19T02:14:09.363Z,14.84
2019-05-19T02:15:09.246Z,14.88
2019-05-19T02:16:09.247Z,14.90
2019-05-19T02:17:09.129Z,14.86
2019-05-19T02:18:09.126Z,14.88
2019-05-19T02:19:09.011Z,14.90
2019-05-19T02:20:09.013Z,14.88
2019-05-19T02:21:08.891Z,14.88
2019-05-19T02:22:08.891Z,14.75
2019-05-19T02:23:08.773Z,14.78
2019-05-19T02:24:08.770Z,14.75
2019-05-19T02:25:08.769Z,14.83
2019-05-19T02:26:08.651Z,14.86
2019-05-19T02:27:08.651Z,14.75
2019-05-19T02:28:08.535Z,14.75
2019-05-19T02:29:08.530Z,14.84
2019-05-19T02:30:08.451Z,14.75
2019-05-19T02:31:08.413Z,14.80
2019-05-19T02:32:08.297Z,14.71
2019-05-19T02:33:08.294Z,14.87
2019-05-19T02:34:08.186Z,14.84
2019-05-19T02:35:08.177Z,14.80
2019-05-19T02:36:08.177Z,14.74
2019-05-19T02:37:08.054Z,14.75
2019-05-19T02:38:08.059Z,14.78
2019-05-19T02:39:07.938Z,14.64
2019-05-19T02:40:07.944Z,14.67
2019-05-19T02:41:07.820Z,14.69
2019-05-19T02:42:07.819Z,14.71
2019-05-19T02:43:07.702Z,14.67
2019-05-19T02:44:07.699Z,14.67
2019-05-19T02:45:07.589Z,14.68
2019-05-19T02:46:07.581Z,14.67
2019-05-19T02:47:07.465Z,14.65
2019-05-19T02:48:07.461Z,14.64
2019-05-19T02:49:07.345Z,14.74
2019-05-19T02:50:07.342Z,14.67
2019-05-19T02:51:07.343Z,14.68
2019-05-19T02:52:07.223Z,14.72
2019-05-19T02:53:07.223Z,14.68
2019-05-19T02:54:07.107Z,14.62
2019-05-19T02:55:07.112Z,14.65
2019-05-19T02:56:06.999Z,14.67
2019-05-19T02:57:06.985Z,14.62
2019-05-19T02:58:06.870Z,14.65
2019-05-19T02:59:06.866Z,14.68
2019-05-19T03:00:06.750Z,14.69
2019-05-19T03:01:06.749Z,14.62
2019-05-19T03:02:06.776Z,14.61
2019-05-19T03:03:06.631Z,14.53
2019-05-19T03:04:06.629Z,14.64
2019-05-19T03:05:06.515Z,14.56
2019-05-19T03:06:06.510Z,14.53
2019-05-19T03:07:06.403Z,14.60
2019-05-19T03:08:06.390Z,14.61
2019-05-19T03:09:06.274Z,14.50
2019-05-19T03:10:06.281Z,14.61
2019-05-19T03:11:06.155Z,14.61
2019-05-19T03:12:06.155Z,14.61
2019-05-19T03:13:06.051Z,14.54
2019-05-19T03:14:06.033Z,14.60
2019-05-19T03:15:06.033Z,14.62
2019-05-19T03:16:05.917Z,14.57
2019-05-19T03:17:05.914Z,14.56
2019-05-19T03:18:05.799Z,14.57
2019-05-19T03:19:05.810Z,14.57
2019-05-19T03:20:05.685Z,14.57
2019-05-19T03:21:10.910Z,14.57
2019-05-19T03:22:05.561Z,14.54
2019-05-19T03:23:05.562Z,14.56
2019-05-19T03:24:05.441Z,14.56
2019-05-19T03:25:05.439Z,14.56
2019-05-19T03:26:05.326Z,14.57
2019-05-19T03:27:05.326Z,14.57
2019-05-19T03:28:05.336Z,14.52
2019-05-19T03:29:05.203Z,14.53
2019-05-19T03:30:05.222Z,14.56
2019-05-19T03:31:05.091Z,14.50
2019-05-19T03:32:11.782Z,14.52
2019-05-19T03:33:04.990Z,14.52
2019-05-19T03:34:04.968Z,14.56
2019-05-19T03:35:04.849Z,14.53
2019-05-19T03:36:04.845Z,14.47
2019-05-19T03:37:04.730Z,14.52
2019-05-19T03:38:04.727Z,14.50
2019-05-19T03:39:04.612Z,14.60
2019-05-19T03:40:04.606Z,14.54
2019-05-19T03:41:05.209Z,14.53
2019-05-19T03:42:04.490Z,14.50
2019-05-19T03:43:04.488Z,14.50
2019-05-19T03:44:04.370Z,14.50
2019-05-19T03:45:04.368Z,14.47
2019-05-19T03:46:04.256Z,14.46
2019-05-19T03:47:04.250Z,14.49
2019-05-19T03:48:04.134Z,14.49
2019-05-19T03:49:04.131Z,14.47
2019-05-19T03:50:04.014Z,14.38
2019-05-19T03:51:04.015Z,14.35
2019-05-19T03:52:03.899Z,14.47
2019-05-19T03:53:03.895Z,14.38
2019-05-19T03:54:03.897Z,14.46
2019-05-19T03:55:03.774Z,14.42
2019-05-19T03:56:03.775Z,14.42
2019-05-19T03:57:03.658Z,14.42
2019-05-19T03:58:03.656Z,14.42
2019-05-19T03:59:03.543Z,14.43
2019-05-19T04:00:03.536Z,14.35
2019-05-19T04:01:03.422Z,14.35
2019-05-19T04:02:03.421Z,14.38
2019-05-19T04:03:03.391Z,14.42
2019-05-19T04:04:03.299Z,14.37
2019-05-19T04:05:03.183Z,14.42
2019-05-19T04:06:03.181Z,14.37
2019-05-19T04:07:03.178Z,14.42
2019-05-19T04:08:03.063Z,14.35
2019-05-19T04:09:03.064Z,14.39
2019-05-19T04:10:02.945Z,14.39
2019-05-19T04:11:02.942Z,14.35
2019-05-19T04:12:02.831Z,14.47
2019-05-19T04:13:02.828Z,14.34
2019-05-19T04:14:02.712Z,14.42
2019-05-19T04:15:02.705Z,14.34
2019-05-19T04:16:02.586Z,14.44
2019-05-19T04:17:02.586Z,14.42
2019-05-19T04:18:02.468Z,14.38
2019-05-19T04:19:02.466Z,14.42
2019-05-19T04:20:02.467Z,14.39
2019-05-19T04:21:02.357Z,14.43
2019-05-19T04:22:02.364Z,14.35
2019-05-19T04:23:02.232Z,14.46
2019-05-19T04:24:02.228Z,14.39
2019-05-19T04:25:02.115Z,14.43
2019-05-19T04:26:02.111Z,14.44
2019-05-19T04:27:01.996Z,14.43
2019-05-19T04:28:01.991Z,14.43
2019-05-19T04:29:01.874Z,14.43
2019-05-19T04:30:01.923Z,14.38
2019-05-19T04:31:01.769Z,14.44
2019-05-19T04:32:01.752Z,14.46
2019-05-19T04:33:01.755Z,14.44
2019-05-19T04:34:01.649Z,14.32
2019-05-19T04:35:01.632Z,14.46
2019-05-19T04:36:01.516Z,14.34
2019-05-19T04:37:01.515Z,14.39
2019-05-19T04:38:01.400Z,14.38
2019-05-19T04:39:01.399Z,14.42
2019-05-19T04:40:01.279Z,14.44
2019-05-19T04:41:01.286Z,14.31
2019-05-19T04:42:01.159Z,14.46
2019-05-19T04:43:01.159Z,14.37
2019-05-19T04:44:01.044Z,14.46
2019-05-19T04:45:01.037Z,14.39
2019-05-19T04:46:01.038Z,14.35
2019-05-19T04:47:00.920Z,14.35
2019-05-19T04:48:00.920Z,14.37
2019-05-19T04:49:00.803Z,14.35
2019-05-19T04:50:00.816Z,14.38
2019-05-19T04:51:00.684Z,14.34
2019-05-19T04:52:06.454Z,14.35
2019-05-19T04:53:00.564Z,14.32
2019-05-19T04:54:00.562Z,14.31
2019-05-19T04:55:00.447Z,14.39
2019-05-19T04:56:00.444Z,14.39
2019-05-19T04:57:00.338Z,14.34
2019-05-19T04:58:00.328Z,14.35
2019-05-19T04:59:00.328Z,14.35
2019-05-19T05:00:00.212Z,14.31
2019-05-19T05:01:00.206Z,14.38
2019-05-19T05:02:00.088Z,14.32
2019-05-19T05:03:00.086Z,14.29
2019-05-19T05:03:59.972Z,14.34
2019-05-19T05:04:59.997Z,14.35
2019-05-19T05:05:59.861Z,14.32
2019-05-19T05:06:59.851Z,14.31
2019-05-19T05:07:59.732Z,14.37
2019-05-19T05:08:59.733Z,14.32
2019-05-19T05:09:59.616Z,14.38
2019-05-19T05:10:59.610Z,14.34
2019-05-19T05:11:59.611Z,14.28
2019-05-19T05:12:59.492Z,14.31
2019-05-19T05:13:59.491Z,14.35
2019-05-19T05:14:59.379Z,14.34
2019-05-19T05:15:59.372Z,14.37
2019-05-19T05:16:59.258Z,14.35
2019-05-19T05:17:59.258Z,14.37
2019-05-19T05:18:59.143Z,14.35
2019-05-19T05:19:59.134Z,14.35
2019-05-19T05:20:59.020Z,14.28
2019-05-19T05:21:59.019Z,14.38
2019-05-19T05:22:58.903Z,14.34
2019-05-19T05:23:58.897Z,14.32
2019-05-19T05:24:58.781Z,14.32
2019-05-19T05:25:58.779Z,14.32
2019-05-19T05:26:58.782Z,14.34
2019-05-19T05:27:58.660Z,14.38
2019-05-19T05:28:58.662Z,14.35
2019-05-19T05:29:58.542Z,14.35
2019-05-19T05:30:58.540Z,14.38
2019-05-19T05:31:58.423Z,14.35
2019-05-19T05:32:58.421Z,14.34
2019-05-19T05:33:58.304Z,14.32
2019-05-19T05:34:58.301Z,14.37
2019-05-19T05:35:58.186Z,14.35
2019-05-19T05:36:58.186Z,14.37
2019-05-19T05:37:58.067Z,14.32
2019-05-19T05:38:58.064Z,14.39
2019-05-19T05:39:58.064Z,14.35
2019-05-19T05:40:57.946Z,14.44
2019-05-19T05:41:57.947Z,14.43
2019-05-19T05:42:57.829Z,14.46
2019-05-19T05:43:57.827Z,14.38
2019-05-19T05:44:57.710Z,14.43
2019-05-19T05:45:57.707Z,14.46
2019-05-19T05:46:57.592Z,14.46
2019-05-19T05:47:57.589Z,14.46
2019-05-19T05:48:57.477Z,14.43
2019-05-19T05:49:57.470Z,14.42
2019-05-19T05:50:57.353Z,14.34
2019-05-19T05:51:57.365Z,14.38
2019-05-19T05:52:57.353Z,14.47
2019-05-19T05:53:57.232Z,14.38
2019-05-19T05:54:57.233Z,14.49
2019-05-19T05:55:57.115Z,14.42
2019-05-19T05:56:57.113Z,14.50
2019-05-19T05:57:56.997Z,14.47
2019-05-19T05:58:56.994Z,14.53
2019-05-19T05:59:56.878Z,14.44
2019-05-19T06:00:56.881Z,14.47
2019-05-19T06:01:56.759Z,14.53
2019-05-19T06:02:56.758Z,14.46
2019-05-19T06:03:56.640Z,14.49
2019-05-19T06:04:56.638Z,14.49
2019-05-19T06:05:56.642Z,14.52
2019-05-19T06:06:56.521Z,14.56
2019-05-19T06:07:56.522Z,14.52
2019-05-19T06:08:56.400Z,14.54
2019-05-19T06:09:56.399Z,14.57
2019-05-19T06:10:56.281Z,14.57
2019-05-19T06:11:56.279Z,14.57
2019-05-19T06:12:56.168Z,14.60
2019-05-19T06:13:56.161Z,14.60
2019-05-19T06:14:56.047Z,14.61
2019-05-19T06:15:56.042Z,14.57
2019-05-19T06:16:55.927Z,14.56
2019-05-19T06:17:55.924Z,14.53
2019-05-19T06:18:56.918Z,14.54
2019-05-19T06:19:55.807Z,14.53
2019-05-19T06:20:55.806Z,14.56
2019-05-19T06:21:55.686Z,14.62
2019-05-19T06:22:57.139Z,14.54
2019-05-19T06:23:55.569Z,14.65
2019-05-19T06:24:58.855Z,14.65
2019-05-19T06:25:55.451Z,14.69
2019-05-19T06:26:55.447Z,14.56
2019-05-19T06:27:55.331Z,14.69
2019-05-19T06:28:55.328Z,14.68
2019-05-19T06:29:55.212Z,14.65
2019-05-19T06:30:55.211Z,14.65
2019-05-19T06:31:55.211Z,14.69
2019-05-19T06:32:55.094Z,14.69
2019-05-19T06:33:55.093Z,14.67
2019-05-19T06:34:54.974Z,14.62
2019-05-19T06:35:54.982Z,14.71
2019-05-19T06:36:55.231Z,14.68
2019-05-19T06:37:54.858Z,14.67
2019-05-19T06:38:54.745Z,14.65
2019-05-19T06:39:54.734Z,14.61
2019-05-19T06:40:54.617Z,14.64
2019-05-19T06:41:54.614Z,14.69
2019-05-19T06:42:54.498Z,14.69
2019-05-19T06:43:54.496Z,14.65
2019-05-19T06:44:54.500Z,14.68
2019-05-19T06:45:54.380Z,14.68
2019-05-19T06:46:54.380Z,14.75
2019-05-19T06:47:54.261Z,14.72
2019-05-19T06:48:54.262Z,14.75
2019-05-19T06:49:54.141Z,14.75
2019-05-19T06:50:54.139Z,14.75
2019-05-19T06:51:54.024Z,14.81
2019-05-19T06:52:54.021Z,14.81
2019-05-19T06:53:53.906Z,14.81
2019-05-19T06:54:53.903Z,14.90
2019-05-19T06:55:53.785Z,14.80
2019-05-19T06:56:53.785Z,14.83
2019-05-19T06:57:54.266Z,14.86
2019-05-19T06:58:53.665Z,14.80
2019-05-19T06:59:53.663Z,14.87
2019-05-19T07:00:53.546Z,14.81
2019-05-19T07:01:53.544Z,14.87
2019-05-19T07:02:53.430Z,14.90
2019-05-19T07:03:53.426Z,14.90
2019-05-19T07:04:53.308Z,14.93
2019-05-19T07:05:53.306Z,14.98
2019-05-19T07:06:53.383Z,14.90
2019-05-19T07:07:53.190Z,14.86
2019-05-19T07:08:53.070Z,14.95
2019-05-19T07:09:58.623Z,14.98
2019-05-19T07:10:53.069Z,14.93
2019-05-19T07:11:52.959Z,14.98
2019-05-19T07:12:52.950Z,15.01
2019-05-19T07:13:52.833Z,14.99
2019-05-19T07:14:52.831Z,15.06
2019-05-19T07:15:52.724Z,15.05
2019-05-19T07:16:52.721Z,15.06
2019-05-19T07:17:52.597Z,15.01
2019-05-19T07:18:52.592Z,15.01
2019-05-19T07:19:52.476Z,15.08
2019-05-19T07:20:52.516Z,15.03
2019-05-19T07:21:52.357Z,15.12
2019-05-19T07:22:52.372Z,15.05
2019-05-19T07:23:52.356Z,15.11
2019-05-19T07:24:52.238Z,15.06
2019-05-19T07:25:52.237Z,15.09
2019-05-19T07:26:52.119Z,15.05
2019-05-19T07:27:52.117Z,15.19
2019-05-19T07:28:52.001Z,15.13
2019-05-19T07:29:52.010Z,15.20
2019-05-19T07:30:51.887Z,15.11
2019-05-19T07:31:51.879Z,15.13
2019-05-19T07:32:51.769Z,15.06
2019-05-19T07:33:51.768Z,15.12
2019-05-19T07:34:51.760Z,15.20
2019-05-19T07:35:51.642Z,15.19
2019-05-19T07:36:51.643Z,15.21
2019-05-19T07:37:51.529Z,15.21
2019-05-19T07:38:51.523Z,15.24
2019-05-19T07:39:51.406Z,15.21
2019-05-19T07:40:51.408Z,15.30
2019-05-19T07:41:51.288Z,15.24
2019-05-19T07:42:51.286Z,15.20
2019-05-19T07:43:51.168Z,15.24
2019-05-19T07:44:51.165Z,15.36
2019-05-19T07:45:51.058Z,15.26
2019-05-19T07:46:51.048Z,15.27
2019-05-19T07:47:51.048Z,15.31
2019-05-19T07:48:50.938Z,15.24
2019-05-19T07:49:50.928Z,15.28
2019-05-19T07:50:50.811Z,15.31
2019-05-19T07:51:50.809Z,15.31
2019-05-19T07:52:50.692Z,15.35
2019-05-19T07:53:50.793Z,15.30
2019-05-19T07:54:50.575Z,15.28
2019-05-19T07:55:50.571Z,15.33
2019-05-19T07:56:50.454Z,15.31
2019-05-19T07:57:50.453Z,15.38
2019-05-19T07:58:50.453Z,15.31
2019-05-19T07:59:50.334Z,15.36
2019-05-19T08:00:50.334Z,15.35
2019-05-19T08:01:50.247Z,15.38
2019-05-19T08:02:50.214Z,15.38
2019-05-19T08:03:50.098Z,15.39
2019-05-19T08:04:50.095Z,15.41
2019-05-19T08:05:49.982Z,15.42
2019-05-19T08:06:49.984Z,15.45
2019-05-19T08:07:49.861Z,15.41
2019-05-19T08:08:49.857Z,15.43
2019-05-19T08:09:49.743Z,15.43
2019-05-19T08:10:49.741Z,15.52
2019-05-19T08:11:49.741Z,15.51
2019-05-19T08:12:49.620Z,15.49
2019-05-19T08:13:49.623Z,15.49
2019-05-19T08:14:49.503Z,15.49
2019-05-19T08:15:49.500Z,15.52
2019-05-19T08:16:49.385Z,15.59
2019-05-19T08:17:49.383Z,15.57
2019-05-19T08:18:49.264Z,15.48
2019-05-19T08:19:49.267Z,15.59
2019-05-19T08:20:49.148Z,15.59
2019-05-19T08:21:49.147Z,15.57
2019-05-19T08:22:51.273Z,15.60
2019-05-19T08:24:00.035Z,15.57
2019-05-19T08:24:49.025Z,15.63
2019-05-19T08:25:48.913Z,15.64
2019-05-19T08:26:48.907Z,15.60
2019-05-19T08:27:48.796Z,15.66
2019-05-19T08:28:48.786Z,15.64
2019-05-19T08:29:48.674Z,15.64
2019-05-19T08:30:48.674Z,15.61
2019-05-19T08:31:48.553Z,15.61
2019-05-19T08:32:48.551Z,15.63
2019-05-19T08:33:48.568Z,15.63
2019-05-19T08:34:48.437Z,15.64
2019-05-19T08:35:48.432Z,15.70
2019-05-19T08:36:48.312Z,15.68
2019-05-19T08:37:48.313Z,15.70
2019-05-19T08:38:48.196Z,15.74
2019-05-19T08:39:48.192Z,15.68
2019-05-19T08:40:48.080Z,15.76
2019-05-19T08:41:48.073Z,15.70
2019-05-19T08:42:47.956Z,15.79
2019-05-19T08:43:47.955Z,15.74
2019-05-19T08:44:47.955Z,15.81
2019-05-19T08:45:47.837Z,15.84
2019-05-19T08:46:47.836Z,15.86
2019-05-19T08:47:47.721Z,15.78
2019-05-19T08:48:47.717Z,15.82
2019-05-19T08:49:47.602Z,15.92
2019-05-19T08:50:47.597Z,15.92
2019-05-19T08:51:47.481Z,15.92
2019-05-19T08:52:47.482Z,15.89
2019-05-19T08:53:47.363Z,15.88
2019-05-19T08:54:47.359Z,15.86
2019-05-19T08:55:47.363Z,15.97
2019-05-19T08:56:47.244Z,16.03
2019-05-19T08:57:47.247Z,16.00
2019-05-19T08:58:47.125Z,15.97
2019-05-19T08:59:47.123Z,15.93
2019-05-19T09:00:47.006Z,16.11
2019-05-19T09:01:47.004Z,16.00
2019-05-19T09:02:46.886Z,16.07
2019-05-19T09:03:46.885Z,16.12
2019-05-19T09:04:46.767Z,16.12
2019-05-19T09:05:47.986Z,16.09
2019-05-19T09:06:46.765Z,16.06
2019-05-19T09:07:46.647Z,16.12
2019-05-19T09:08:46.649Z,16.12
2019-05-19T09:09:46.529Z,16.14
2019-05-19T09:10:46.530Z,16.20
2019-05-19T09:11:48.023Z,16.14
2019-05-19T09:12:46.409Z,16.20
2019-05-19T09:13:46.292Z,16.15
2019-05-19T09:14:46.293Z,16.22
2019-05-19T09:15:46.178Z,16.27
2019-05-19T09:16:46.170Z,16.16
2019-05-19T09:17:46.170Z,16.15
2019-05-19T09:18:46.058Z,16.26
2019-05-19T09:19:46.056Z,16.18
2019-05-19T09:20:45.934Z,16.15
2019-05-19T09:21:45.934Z,16.22
2019-05-19T09:22:45.816Z,16.16
2019-05-19T09:23:45.817Z,16.34
2019-05-19T09:24:45.699Z,16.31
2019-05-19T09:25:45.695Z,16.27
2019-05-19T09:26:45.579Z,16.23
2019-05-19T09:27:45.576Z,16.34
2019-05-19T09:28:45.576Z,16.38
2019-05-19T09:29:45.458Z,16.33
2019-05-19T09:30:45.458Z,16.33
2019-05-19T09:31:45.341Z,16.34
2019-05-19T09:32:45.345Z,16.33
2019-05-19T09:33:45.222Z,16.35
2019-05-19T09:34:45.219Z,16.50
2019-05-19T09:35:45.103Z,16.50
2019-05-19T09:36:45.100Z,16.50
2019-05-19T09:37:44.987Z,16.44
2019-05-19T09:38:44.987Z,16.49
2019-05-19T09:39:44.985Z,16.41
2019-05-19T09:40:44.870Z,16.44
2019-05-19T09:41:44.869Z,16.50
2019-05-19T09:42:44.749Z,16.48
2019-05-19T09:43:44.745Z,16.53
2019-05-19T09:44:44.653Z,16.48
2019-05-19T09:45:44.624Z,16.48
2019-05-19T09:46:44.510Z,16.52
2019-05-19T09:47:44.511Z,16.58
2019-05-19T09:48:44.508Z,16.50
2019-05-19T09:49:44.390Z,16.48
2019-05-19T09:50:44.387Z,16.60
2019-05-19T09:51:44.283Z,16.58
2019-05-19T09:52:44.268Z,16.56
2019-05-19T09:53:44.156Z,16.62
2019-05-19T09:54:45.812Z,16.60
2019-05-19T09:55:44.034Z,16.58
2019-05-19T09:56:44.031Z,16.60
2019-05-19T09:57:43.915Z,16.70
2019-05-19T09:58:43.912Z,16.68
2019-05-19T09:59:43.912Z,16.65
2019-05-19T10:00:43.795Z,16.77
2019-05-19T10:01:43.792Z,16.71
2019-05-19T10:02:43.676Z,16.65
2019-05-19T10:03:43.673Z,16.73
2019-05-19T10:04:43.559Z,16.71
2019-05-19T10:05:43.555Z,16.71
2019-05-19T10:06:43.495Z,16.75
2019-05-19T10:07:43.435Z,16.81
2019-05-19T10:08:43.436Z,16.73
2019-05-19T10:09:43.318Z,16.83
2019-05-19T10:10:43.317Z,16.85
2019-05-19T10:11:43.200Z,16.75
2019-05-19T10:12:43.200Z,16.88
2019-05-19T10:13:43.081Z,16.81
2019-05-19T10:14:43.080Z,16.80
2019-05-19T10:15:42.963Z,16.83
2019-05-19T10:16:42.959Z,16.75
2019-05-19T10:17:42.846Z,16.77
2019-05-19T10:18:42.852Z,16.83
2019-05-19T10:19:42.842Z,16.81
2019-05-19T10:20:42.722Z,16.77
2019-05-19T10:21:42.722Z,16.80
2019-05-19T10:22:42.606Z,16.74
2019-05-19T10:23:42.607Z,16.83
2019-05-19T10:24:59.282Z,16.75
2019-05-19T10:25:42.484Z,16.75
2019-05-19T10:26:42.373Z,16.89
2019-05-19T10:27:42.369Z,16.86
2019-05-19T10:28:42.365Z,16.86
2019-05-19T10:29:42.248Z,16.86
2019-05-19T10:30:42.247Z,16.80
2019-05-19T10:31:42.129Z,16.86
2019-05-19T10:32:42.127Z,16.81
2019-05-19T10:33:42.016Z,16.86
2019-05-19T10:34:42.009Z,16.90
2019-05-19T10:35:41.894Z,16.85
2019-05-19T10:36:41.889Z,16.90
2019-05-19T10:37:41.890Z,16.85
2019-05-19T10:38:41.771Z,16.77
2019-05-19T10:39:41.771Z,16.92
2019-05-19T10:40:41.656Z,16.92
2019-05-19T10:41:41.657Z,16.89
2019-05-19T10:42:41.537Z,16.93
2019-05-19T10:43:41.542Z,16.88
2019-05-19T10:44:41.598Z,16.90
2019-05-19T10:45:41.415Z,16.88
2019-05-19T10:46:41.299Z,16.86
2019-05-19T10:47:41.295Z,16.86
2019-05-19T10:48:41.298Z,16.85
2019-05-19T10:49:42.977Z,16.96
2019-05-19T10:50:41.186Z,16.89
2019-05-19T10:51:41.060Z,16.99
2019-05-19T10:52:41.059Z,16.96
2019-05-19T10:53:40.983Z,16.93
2019-05-19T10:54:40.939Z,16.99
2019-05-19T10:55:40.824Z,16.92
2019-05-19T10:56:40.819Z,16.96
2019-05-19T10:57:41.303Z,16.96
2019-05-19T10:58:40.702Z,16.95
2019-05-19T10:59:40.700Z,16.93
2019-05-19T11:00:40.583Z,16.88
2019-05-19T11:01:40.583Z,16.93
2019-05-19T11:02:40.464Z,16.92
2019-05-19T11:03:40.465Z,16.90
2019-05-19T11:04:40.347Z,17.00
2019-05-19T11:05:40.345Z,16.90
2019-05-19T11:06:40.228Z,16.99
2019-05-19T11:07:40.225Z,16.95
2019-05-19T11:08:40.226Z,16.89
2019-05-19T11:09:40.110Z,16.90
2019-05-19T11:10:40.107Z,17.03
2019-05-19T11:11:39.990Z,16.89
2019-05-19T11:12:39.988Z,16.88
2019-05-19T11:13:39.874Z,16.90
2019-05-19T11:14:39.868Z,16.90
2019-05-19T11:15:39.751Z,16.90
2019-05-19T11:16:39.760Z,16.92
2019-05-19T11:17:39.750Z,16.96
2019-05-19T11:18:39.631Z,16.95
2019-05-19T11:19:39.631Z,16.90
2019-05-19T11:20:39.514Z,16.96
2019-05-19T11:21:39.511Z,16.95
2019-05-19T11:22:39.395Z,17.04
2019-05-19T11:23:39.393Z,16.99
2019-05-19T11:24:39.276Z,17.04
2019-05-19T11:25:51.191Z,16.96
2019-05-19T11:26:39.282Z,16.96
2019-05-19T11:27:39.155Z,16.99
2019-05-19T11:28:39.155Z,17.00
2019-05-19T11:29:39.037Z,17.00
2019-05-19T11:30:39.035Z,17.00
2019-05-19T11:31:38.920Z,16.99
2019-05-19T11:32:38.920Z,16.98
2019-05-19T11:33:38.802Z,17.07
2019-05-19T11:34:38.799Z,17.03
2019-05-19T11:35:38.684Z,17.06
2019-05-19T11:36:38.680Z,17.06
2019-05-19T11:37:38.678Z,17.15
2019-05-19T11:38:38.562Z,17.14
2019-05-19T11:39:38.561Z,17.07
2019-05-19T11:40:38.450Z,17.11
2019-05-19T11:41:38.442Z,17.17
2019-05-19T11:42:38.325Z,17.06
2019-05-19T11:43:38.322Z,17.08
2019-05-19T11:44:38.205Z,17.18
2019-05-19T11:45:38.203Z,17.13
2019-05-19T11:46:38.204Z,17.10
2019-05-19T11:47:38.085Z,17.11
2019-05-19T11:48:38.084Z,17.14
2019-05-19T11:49:37.976Z,17.07
2019-05-19T11:50:41.869Z,17.14
2019-05-19T11:51:37.850Z,17.10
2019-05-19T11:52:37.847Z,17.22
2019-05-19T11:53:37.731Z,17.07
2019-05-19T11:54:37.729Z,17.11
2019-05-19T11:55:37.728Z,17.20
2019-05-19T11:56:37.610Z,17.17
2019-05-19T11:57:37.609Z,17.17
2019-05-19T11:58:37.493Z,17.17
2019-05-19T11:59:37.490Z,17.15
2019-05-19T12:00:37.375Z,17.23
2019-05-19T12:01:37.372Z,17.20
2019-05-19T12:02:37.258Z,17.18
2019-05-19T12:03:37.253Z,17.22
2019-05-19T12:04:37.157Z,17.23
2019-05-19T12:05:37.189Z,17.22
2019-05-19T12:06:39.825Z,17.23
2019-05-19T12:07:37.016Z,17.26
2019-05-19T12:08:37.015Z,17.26
2019-05-19T12:09:36.904Z,17.32
2019-05-19T12:10:36.900Z,17.28
2019-05-19T12:11:36.779Z,17.32
2019-05-19T12:12:36.776Z,17.25
2019-05-19T12:13:36.660Z,17.26
2019-05-19T12:14:36.658Z,17.35
2019-05-19T12:15:36.659Z,17.33
2019-05-19T12:16:36.541Z,17.38
2019-05-19T12:17:36.541Z,17.33
2019-05-19T12:18:36.435Z,17.35
2019-05-19T12:19:36.419Z,17.35
2019-05-19T12:20:36.308Z,17.30
2019-05-19T12:21:36.301Z,17.32
2019-05-19T12:22:36.185Z,17.40
2019-05-19T12:23:36.182Z,17.41
2019-05-19T12:24:36.183Z,17.43
2019-05-19T12:25:36.064Z,17.36
2019-05-19T12:26:36.064Z,17.33
2019-05-19T12:27:35.948Z,17.46
2019-05-19T12:28:35.944Z,17.33
2019-05-19T12:29:35.830Z,17.38
2019-05-19T12:30:35.825Z,17.32
2019-05-19T12:31:35.712Z,17.36
2019-05-19T12:32:35.758Z,17.40
2019-05-19T12:33:44.131Z,17.44
2019-05-19T12:34:35.588Z,17.46
2019-05-19T12:35:35.592Z,17.48
2019-05-19T12:36:35.472Z,17.47
2019-05-19T12:37:35.477Z,17.38
2019-05-19T12:38:35.352Z,17.50
2019-05-19T12:39:35.408Z,17.47
2019-05-19T12:40:35.236Z,17.51
2019-05-19T12:41:35.295Z,17.50
2019-05-19T12:42:35.231Z,17.50
2019-05-19T12:43:35.112Z,17.48
2019-05-19T12:44:35.112Z,17.63
2019-05-19T12:45:34.997Z,17.57
2019-05-19T12:46:34.994Z,17.79
2019-05-19T12:47:34.877Z,17.76
2019-05-19T12:48:34.914Z,17.79
2019-05-19T12:49:34.758Z,17.79
2019-05-19T12:50:34.761Z,17.88
2019-05-19T12:51:34.761Z,17.89